Schijndel, Netherlands
Current Conditions -  °F | °C
As of 5:00 PM on Thursday 23 Oct 2014 (Local Time) from EHEH Reporting Station
Overcast Overcast  
Wind Chill: 57°   Ceiling: 4500
Heat Index: 57°   Visibility: 6mi
Dew Point: 50°   Wind: 12mph
Humidity: 77%   Direction: 200°SSW
Pressure: 30.15"   Gusts: NA
Location:  51.62°N, 5.43°E
Report Text: EHEH 231500Z AUTO 20010KT 9999 FEW022 OVC045 14/10 Q1021 BLU 22010KT 9999 FEW025 BKN045
Loading
Personal Weather Stations






























Interactive Weather Map
Tropical Storm Tracking
New forecast layout! Learn more

10-Day Weather Forecast

Advertisements
Track Severe Weather on mobile